Tuttle, Oklahoma
Current Conditions -  °F | °C
As of 12:55 PM on Monday 20 Oct 2014 (Local Time) from KRCE Reporting Station
Clear Clear  
Wind Chill: 24°   Ceiling: Unl
Heat Index: 24°   Visibility: NA
Dew Point: 17°   Wind: 6mph
Humidity: 65%   Direction: 220°SW
Pressure: 30.07"   Gusts: NA
Location:  35.29°N, 97.81°W
Report Text: KRCE 201755Z AUTO 22005KT CLR 24/17 A3007 RMK AO2
Loading
Personal Weather Stations






























Interactive Weather Map
Tropical Storm Tracking
New forecast layout! Learn more

10-Day Weather Forecast

Advertisements
Track Severe Weather on mobile